KCSM/CSM METAR and TAF weather

Enter ICAO airport designator
Station Type Date Time Source
KCSM METAR 2020/03/29 21:53 UTC NOAA

KCSM 292153Z AUTO 17008KT 10SM CLR 18/01 A3011 RMK AO2 SLP191 T01830011


Station Type Date Time Source
KCSM Decoded METAR 2020/03/29 21:53 UTC NOAA

CLINTON-SHERMAN AIRPORT, OK, United States (KCSM) 35-21E 99-12W 588M
Mar 29, 2020 - 05:53 PM EDT / 2020.03.29 2153 UTC
Wind: from the S (170 degrees) at 9 MPH (8 KT):0
Visibility: 10 mile(s):0
Sky conditions: clear
Temperature: 64.9 F (18.3 C)
Dew Point: 34.0 F (1.1 C)
Relative Humidity: 31%
Pressure (altimeter): 30.11 in. Hg (1019 hPa)
ob: KCSM 292153Z AUTO 17008KT 10SM CLR 18/01 A3011 RMK AO2 SLP191 T01830011
cycle: 22

Station Type Date Time Source
KCSM TAF 2020/03/29 18:30 UTC NOAA

TAF KCSM 291727Z 2918/3018 20009KT P6SM BKN250
FM300000 15008KT P6SM SCT250
FM301200 14014KT P6SM BKN100 PROB30 3014/3018 4SM -TSRA OVC050CB

Example: see airport list